createdAt,value
2022-07-31T00:01:03.389Z,92.40
2022-07-31T00:03:48.769Z,93.30
2022-07-31T00:06:34.099Z,93.40
2022-07-31T00:09:48.902Z,94.00
2022-07-31T00:12:25.001Z,94.10
2022-07-31T00:15:10.982Z,94.10
2022-07-31T00:17:56.211Z,94.30
2022-07-31T00:20:41.843Z,93.80
2022-07-31T00:23:27.131Z,93.80
2022-07-31T00:26:12.629Z,93.40
2022-07-31T00:28:57.896Z,93.70
2022-07-31T00:31:43.394Z,93.70
2022-07-31T00:34:28.659Z,93.50
2022-07-31T00:37:13.912Z,93.80
2022-07-31T00:39:59.347Z,93.40
2022-07-31T00:42:44.712Z,93.20
2022-07-31T00:45:31.744Z,93.10
2022-07-31T00:48:17.134Z,92.80
2022-07-31T00:51:03.788Z,92.70
2022-07-31T00:53:48.999Z,92.90
2022-07-31T00:56:34.753Z,92.80
2022-07-31T00:59:24.770Z,92.60
2022-07-31T01:02:10.944Z,92.60
2022-07-31T01:04:56.295Z,92.70
2022-07-31T01:07:41.511Z,92.60
2022-07-31T01:10:41.031Z,92.50
2022-07-31T01:13:43.822Z,93.40
2022-07-31T01:16:33.515Z,92.70
2022-07-31T01:19:21.642Z,93.20
2022-07-31T01:22:33.986Z,93.10
2022-07-31T01:25:33.229Z,93.60
2022-07-31T01:28:53.713Z,93.60
2022-07-31T01:31:45.034Z,93.80
2022-07-31T01:34:46.588Z,93.90
2022-07-31T01:37:40.228Z,93.80
2022-07-31T01:40:37.380Z,94.10
2022-07-31T01:43:25.730Z,94.50
2022-07-31T01:46:14.033Z,94.30
2022-07-31T01:49:00.835Z,94.20
2022-07-31T01:51:47.995Z,94.20
2022-07-31T01:54:35.090Z,94.10
2022-07-31T01:57:23.606Z,93.80
2022-07-31T02:00:28.623Z,94.50
2022-07-31T02:03:17.306Z,94.70
2022-07-31T02:06:03.847Z,94.90
2022-07-31T02:08:51.976Z,95.30
2022-07-31T02:11:45.726Z,95.60
2022-07-31T02:14:41.750Z,95.20
2022-07-31T02:17:27.719Z,95.00
2022-07-31T02:20:14.733Z,95.20
2022-07-31T02:23:01.477Z,95.30
2022-07-31T02:25:47.837Z,95.60
2022-07-31T02:28:37.847Z,95.80
2022-07-31T02:31:24.272Z,95.90
2022-07-31T02:34:09.512Z,96.00
2022-07-31T02:36:55.439Z,95.70
2022-07-31T02:39:42.622Z,96.10
2022-07-31T02:42:28.348Z,95.80
2022-07-31T02:45:14.400Z,95.20
2022-07-31T02:47:59.891Z,95.80
2022-07-31T02:50:45.527Z,95.30
2022-07-31T02:53:31.432Z,95.60
2022-07-31T02:56:17.089Z,95.30
2022-07-31T02:59:02.608Z,95.70
2022-07-31T03:01:48.145Z,95.50
2022-07-31T03:04:33.519Z,96.20
2022-07-31T03:07:18.878Z,96.10
2022-07-31T03:10:04.685Z,96.00
2022-07-31T03:12:53.005Z,96.30
2022-07-31T03:15:40.201Z,96.50
2022-07-31T03:18:26.768Z,96.50
2022-07-31T03:21:13.221Z,96.70
2022-07-31T03:23:59.408Z,96.40
2022-07-31T03:26:44.903Z,96.60
2022-07-31T03:29:43.269Z,96.70
2022-07-31T03:32:29.085Z,96.80
2022-07-31T03:35:14.239Z,96.80
2022-07-31T03:38:00.171Z,96.80
2022-07-31T03:40:46.806Z,96.80
2022-07-31T03:43:46.827Z,97.10
2022-07-31T03:46:34.364Z,97.30
2022-07-31T03:49:20.138Z,97.30
2022-07-31T03:52:11.446Z,97.50
2022-07-31T03:54:57.429Z,97.50
2022-07-31T03:57:43.650Z,97.50
2022-07-31T04:00:32.465Z,97.50
2022-07-31T04:03:19.383Z,97.60
2022-07-31T04:06:04.780Z,97.80
2022-07-31T04:08:50.074Z,97.80
2022-07-31T04:11:35.210Z,97.70
2022-07-31T04:14:20.714Z,97.50
2022-07-31T04:17:06.289Z,97.70
2022-07-31T04:19:51.627Z,97.80
2022-07-31T04:22:37.645Z,97.80
2022-07-31T04:25:25.295Z,97.70
2022-07-31T04:28:10.618Z,97.80
2022-07-31T04:30:55.723Z,97.70
2022-07-31T04:33:46.640Z,98.00
2022-07-31T04:36:34.885Z,98.10
2022-07-31T04:39:20.410Z,97.80
2022-07-31T04:42:10.704Z,97.70
2022-07-31T04:44:56.551Z,97.90
2022-07-31T04:47:42.031Z,97.80
2022-07-31T04:50:27.537Z,97.80
2022-07-31T04:53:12.886Z,97.70
2022-07-31T04:56:16.839Z,97.80
2022-07-31T04:59:06.250Z,97.70
2022-07-31T05:01:51.769Z,97.80
2022-07-31T05:04:37.371Z,97.70
2022-07-31T05:07:23.238Z,97.80
2022-07-31T05:10:09.597Z,97.80
2022-07-31T05:12:54.961Z,97.80
2022-07-31T05:15:40.251Z,97.80
2022-07-31T05:18:25.559Z,97.60
2022-07-31T05:21:12.512Z,97.50
2022-07-31T05:23:59.137Z,97.30
2022-07-31T05:26:44.441Z,96.90
2022-07-31T05:29:31.053Z,96.70
2022-07-31T05:32:16.735Z,96.90
2022-07-31T05:35:02.165Z,96.90
2022-07-31T05:37:47.403Z,96.90
2022-07-31T05:40:32.919Z,96.70
2022-07-31T05:43:18.724Z,96.70
2022-07-31T05:46:05.716Z,96.60
2022-07-31T05:48:51.627Z,96.40
2022-07-31T05:51:37.578Z,96.40
2022-07-31T05:54:23.077Z,96.40
2022-07-31T05:57:08.878Z,96.40
2022-07-31T05:59:53.911Z,96.60
2022-07-31T06:02:39.850Z,96.50
2022-07-31T06:05:25.123Z,96.50
2022-07-31T06:08:10.900Z,96.80
2022-07-31T06:10:56.503Z,96.60
2022-07-31T06:13:43.312Z,96.60
2022-07-31T06:16:28.779Z,96.60
2022-07-31T06:19:14.298Z,97.10
2022-07-31T06:21:59.775Z,97.60
2022-07-31T06:24:45.210Z,97.30
2022-07-31T06:27:39.316Z,97.40
2022-07-31T06:30:33.037Z,97.30
2022-07-31T06:33:37.536Z,97.20
2022-07-31T06:36:37.036Z,97.20
2022-07-31T06:39:55.495Z,97.30
2022-07-31T06:42:50.942Z,96.80
2022-07-31T06:45:51.716Z,97.00
2022-07-31T06:48:37.796Z,96.80
2022-07-31T06:51:31.997Z,96.70
2022-07-31T06:54:17.863Z,96.80
2022-07-31T06:57:04.101Z,97.10
2022-07-31T06:59:49.336Z,96.80
2022-07-31T07:02:35.071Z,96.80
2022-07-31T07:05:21.697Z,96.80
2022-07-31T07:08:07.995Z,96.60
2022-07-31T07:10:53.476Z,96.90
2022-07-31T07:13:44.975Z,96.90
2022-07-31T07:16:32.068Z,96.50
2022-07-31T07:19:17.639Z,96.80
2022-07-31T07:22:03.401Z,96.60
2022-07-31T07:24:49.111Z,97.00
2022-07-31T07:27:34.663Z,96.60
2022-07-31T07:30:20.798Z,96.70
2022-07-31T07:33:06.319Z,96.90
2022-07-31T07:35:52.071Z,96.90
2022-07-31T07:38:37.426Z,96.90
2022-07-31T07:41:24.471Z,96.70
2022-07-31T07:44:10.207Z,96.90
2022-07-31T07:46:55.666Z,95.90
2022-07-31T07:49:41.136Z,95.20
2022-07-31T07:52:28.903Z,95.40
2022-07-31T07:55:14.795Z,95.30
2022-07-31T07:58:00.306Z,95.00
2022-07-31T08:00:45.648Z,94.50
2022-07-31T08:03:48.428Z,94.20
2022-07-31T08:06:35.902Z,93.50
2022-07-31T08:09:23.043Z,94.10
2022-07-31T08:12:08.395Z,93.80
2022-07-31T08:14:54.018Z,94.20
2022-07-31T08:17:39.123Z,94.10
2022-07-31T08:20:24.806Z,94.00
2022-07-31T08:23:10.235Z,94.20
2022-07-31T08:26:08.338Z,93.40
2022-07-31T08:28:53.825Z,92.70
2022-07-31T08:31:41.593Z,92.90
2022-07-31T08:34:37.020Z,92.40
2022-07-31T08:37:51.032Z,91.90
2022-07-31T08:40:31.397Z,91.80
2022-07-31T08:44:00.544Z,91.50
2022-07-31T08:46:27.970Z,91.70
2022-07-31T08:49:16.273Z,91.00
2022-07-31T08:52:02.480Z,90.80
2022-07-31T08:54:49.587Z,90.30
2022-07-31T08:57:36.967Z,90.00
2022-07-31T09:00:22.898Z,89.20
2022-07-31T09:03:08.647Z,88.70
2022-07-31T09:05:54.207Z,88.00
2022-07-31T09:08:39.390Z,86.60
2022-07-31T09:11:24.830Z,86.60
2022-07-31T09:14:10.721Z,86.70
2022-07-31T09:16:56.918Z,84.80
2022-07-31T09:19:51.702Z,83.50
2022-07-31T09:22:39.984Z,84.90
2022-07-31T09:25:25.537Z,83.60
2022-07-31T09:28:10.841Z,83.40
2022-07-31T09:30:57.252Z,83.40
2022-07-31T09:33:45.937Z,81.90
2022-07-31T09:36:32.596Z,81.50
2022-07-31T09:39:27.179Z,79.70
2022-07-31T09:42:16.852Z,79.30
2022-07-31T09:45:03.158Z,79.90
2022-07-31T09:48:02.507Z,78.60
2022-07-31T09:50:59.561Z,79.30
2022-07-31T09:53:53.071Z,77.40
2022-07-31T09:56:38.277Z,77.00
2022-07-31T09:59:24.040Z,74.90
2022-07-31T10:02:12.516Z,74.20
2022-07-31T10:04:59.058Z,73.80
2022-07-31T10:07:46.227Z,73.70
2022-07-31T10:10:32.163Z,72.60
2022-07-31T10:13:20.846Z,71.00
2022-07-31T10:16:07.051Z,69.50
2022-07-31T10:18:56.822Z,68.70
2022-07-31T10:21:47.160Z,68.80
2022-07-31T10:24:35.414Z,69.40
2022-07-31T10:27:21.699Z,69.80
2022-07-31T10:30:08.463Z,70.10
2022-07-31T10:32:54.265Z,71.40
2022-07-31T10:35:44.662Z,70.30
2022-07-31T10:38:52.047Z,71.60
2022-07-31T10:41:53.130Z,72.50
2022-07-31T10:44:50.937Z,73.50
2022-07-31T10:47:36.884Z,71.20
2022-07-31T10:50:24.486Z,72.50
2022-07-31T10:53:12.820Z,72.40
2022-07-31T10:56:10.792Z,70.50
2022-07-31T10:58:58.088Z,69.40
2022-07-31T11:01:52.947Z,68.90
2022-07-31T11:04:39.005Z,67.90
2022-07-31T11:07:25.558Z,67.70
2022-07-31T11:10:13.075Z,68.00
2022-07-31T11:13:10.922Z,66.20
2022-07-31T11:16:06.298Z,66.60
2022-07-31T11:19:03.752Z,66.20
2022-07-31T11:21:49.263Z,65.10
2022-07-31T11:24:35.101Z,66.40
2022-07-31T11:27:33.121Z,66.10
2022-07-31T11:30:18.711Z,66.40
2022-07-31T11:33:04.341Z,66.70
2022-07-31T11:35:49.606Z,65.20
2022-07-31T11:38:36.410Z,61.90
2022-07-31T11:41:29.515Z,63.30
2022-07-31T11:44:23.176Z,64.60
2022-07-31T11:48:09.656Z,63.20
2022-07-31T11:50:15.580Z,60.90
2022-07-31T11:53:04.535Z,61.00
2022-07-31T11:55:55.055Z,61.20
2022-07-31T11:58:50.659Z,62.20
2022-07-31T12:01:36.005Z,60.80
2022-07-31T12:04:25.954Z,59.90
2022-07-31T12:07:11.620Z,60.30
2022-07-31T12:10:01.867Z,57.90
2022-07-31T12:12:48.460Z,57.00
2022-07-31T12:15:33.527Z,59.50
2022-07-31T12:18:19.096Z,57.60
2022-07-31T12:21:05.035Z,57.30
2022-07-31T12:23:52.066Z,59.30
2022-07-31T12:26:37.495Z,57.80
2022-07-31T12:29:38.149Z,59.20
2022-07-31T12:32:27.936Z,59.60
2022-07-31T12:35:13.308Z,59.70
2022-07-31T12:37:58.778Z,58.80
2022-07-31T12:40:44.268Z,58.40
2022-07-31T12:43:29.675Z,57.20
2022-07-31T12:46:15.155Z,55.10
2022-07-31T12:49:00.482Z,54.00
2022-07-31T12:51:47.273Z,54.10
2022-07-31T12:54:37.739Z,53.40
2022-07-31T12:57:24.930Z,53.40
2022-07-31T13:00:10.897Z,53.10
2022-07-31T13:02:58.028Z,54.00
2022-07-31T13:05:43.296Z,54.30
2022-07-31T13:08:29.253Z,53.40
2022-07-31T13:11:18.287Z,53.10
2022-07-31T13:14:03.872Z,52.40
2022-07-31T13:16:52.600Z,53.10
2022-07-31T13:19:37.790Z,51.70
2022-07-31T13:22:23.230Z,52.50
2022-07-31T13:25:09.212Z,52.00
2022-07-31T13:27:54.613Z,52.30
2022-07-31T13:30:39.830Z,52.90
2022-07-31T13:33:25.147Z,52.80
2022-07-31T13:36:10.872Z,54.00
2022-07-31T13:38:55.964Z,53.50
2022-07-31T13:41:41.780Z,54.60
2022-07-31T13:44:27.029Z,54.50
2022-07-31T13:47:12.488Z,54.90
2022-07-31T13:49:57.829Z,55.30
2022-07-31T13:52:43.175Z,56.20
2022-07-31T13:55:28.715Z,54.30
2022-07-31T13:58:14.011Z,55.30
2022-07-31T14:01:04.340Z,55.30
2022-07-31T14:03:53.638Z,55.90
2022-07-31T14:06:40.126Z,56.20
2022-07-31T14:09:25.598Z,54.80
2022-07-31T14:12:11.577Z,56.40
2022-07-31T14:14:56.970Z,55.40
2022-07-31T14:17:42.408Z,55.30
2022-07-31T14:20:27.828Z,55.20
2022-07-31T14:23:13.847Z,55.90
2022-07-31T14:25:59.485Z,55.80
2022-07-31T14:28:49.459Z,55.00
2022-07-31T14:31:34.856Z,55.50
2022-07-31T14:34:20.276Z,55.90
2022-07-31T14:37:05.774Z,55.70
2022-07-31T14:39:51.915Z,55.60
2022-07-31T14:42:37.080Z,55.70
2022-07-31T14:45:24.291Z,55.40
2022-07-31T14:48:09.812Z,55.80
2022-07-31T14:50:55.481Z,55.90
2022-07-31T14:53:40.837Z,55.90
2022-07-31T14:56:45.337Z,55.30
2022-07-31T14:59:32.191Z,56.00
2022-07-31T15:02:22.329Z,56.70
2022-07-31T15:06:39.649Z,56.00
2022-07-31T15:08:13.694Z,56.20
2022-07-31T15:10:59.134Z,56.30
2022-07-31T15:13:44.386Z,56.10
2022-07-31T15:16:30.215Z,55.70
2022-07-31T15:19:15.769Z,56.00
2022-07-31T15:22:10.309Z,56.20
2022-07-31T15:25:02.423Z,55.90
2022-07-31T15:27:47.765Z,56.10
2022-07-31T15:30:33.413Z,55.60
2022-07-31T15:33:18.572Z,55.50
2022-07-31T15:36:04.440Z,55.90
2022-07-31T15:38:49.442Z,55.80
2022-07-31T15:41:34.762Z,56.00
2022-07-31T15:44:20.222Z,55.80
2022-07-31T15:47:05.916Z,55.90
2022-07-31T15:49:51.456Z,55.60
2022-07-31T15:52:37.248Z,55.40
2022-07-31T15:55:22.624Z,54.90
2022-07-31T15:58:08.106Z,54.80
2022-07-31T16:00:53.618Z,55.20
2022-07-31T16:03:50.431Z,54.60
2022-07-31T16:06:36.458Z,54.90
2022-07-31T16:09:23.954Z,55.40
2022-07-31T16:12:09.700Z,55.00
2022-07-31T16:14:55.248Z,54.20
2022-07-31T16:17:41.875Z,54.30
2022-07-31T16:20:28.147Z,55.10
2022-07-31T16:23:13.593Z,55.10
2022-07-31T16:25:59.018Z,55.40
2022-07-31T16:28:44.240Z,55.60
2022-07-31T16:31:30.522Z,55.60
2022-07-31T16:34:15.915Z,55.10
2022-07-31T16:37:01.217Z,54.40
2022-07-31T16:39:47.568Z,54.70
2022-07-31T16:42:32.719Z,55.00
2022-07-31T16:45:18.201Z,55.60
2022-07-31T16:48:04.085Z,54.70
2022-07-31T16:50:54.151Z,55.30
2022-07-31T16:54:13.221Z,55.60
2022-07-31T16:56:45.230Z,55.30
2022-07-31T16:59:30.605Z,55.00
2022-07-31T17:02:16.565Z,54.60
2022-07-31T17:05:01.942Z,54.70
2022-07-31T17:07:47.478Z,55.80
2022-07-31T17:10:33.735Z,55.40
2022-07-31T17:13:19.498Z,54.60
2022-07-31T17:16:05.078Z,54.80
2022-07-31T17:18:54.498Z,54.70
2022-07-31T17:21:44.609Z,55.00
2022-07-31T17:24:31.542Z,54.80
2022-07-31T17:27:18.400Z,55.30
2022-07-31T17:30:04.554Z,55.30
2022-07-31T17:32:49.611Z,55.40
2022-07-31T17:35:35.218Z,55.30
2022-07-31T17:38:20.799Z,55.90
2022-07-31T17:41:06.331Z,55.80
2022-07-31T17:44:10.038Z,56.20
2022-07-31T17:46:57.839Z,56.10
2022-07-31T17:49:53.165Z,56.00
2022-07-31T17:52:38.716Z,56.20
2022-07-31T17:55:24.120Z,56.80
2022-07-31T17:58:09.870Z,55.90
2022-07-31T18:00:55.590Z,57.70
2022-07-31T18:03:40.813Z,60.80
2022-07-31T18:06:26.195Z,62.80
2022-07-31T18:09:11.723Z,63.70
2022-07-31T18:11:57.567Z,63.20
2022-07-31T18:14:43.095Z,63.20
2022-07-31T18:17:31.259Z,63.20
2022-07-31T18:20:21.711Z,63.40
2022-07-31T18:23:10.129Z,64.70
2022-07-31T18:26:00.328Z,66.00
2022-07-31T18:28:45.783Z,65.80
2022-07-31T18:31:34.844Z,65.60
2022-07-31T18:34:21.244Z,66.70
2022-07-31T18:37:06.856Z,66.90
2022-07-31T18:39:52.169Z,66.60
2022-07-31T18:42:37.685Z,66.90
2022-07-31T18:45:23.721Z,67.50
2022-07-31T18:48:09.068Z,68.20
2022-07-31T18:51:01.208Z,68.60
2022-07-31T18:53:49.426Z,70.80
2022-07-31T18:56:35.142Z,69.50
2022-07-31T18:59:20.835Z,69.30
2022-07-31T19:02:06.629Z,69.10
2022-07-31T19:04:57.279Z,68.60
2022-07-31T19:07:42.739Z,67.80
2022-07-31T19:10:30.928Z,69.10
2022-07-31T19:13:18.839Z,68.80
2022-07-31T19:16:04.930Z,68.80
2022-07-31T19:18:51.126Z,67.80
2022-07-31T19:21:42.595Z,67.60
2022-07-31T19:24:28.634Z,67.80
2022-07-31T19:27:14.134Z,67.80
2022-07-31T19:29:59.654Z,67.40
2022-07-31T19:32:45.089Z,67.80
2022-07-31T19:35:30.428Z,70.10
2022-07-31T19:38:15.890Z,70.90
2022-07-31T19:41:01.584Z,68.20
2022-07-31T19:43:47.839Z,67.80
2022-07-31T19:46:33.595Z,68.10
2022-07-31T19:49:18.826Z,69.40
2022-07-31T19:52:04.586Z,68.40
2022-07-31T19:54:50.477Z,70.10
2022-07-31T19:57:36.701Z,70.70
2022-07-31T20:00:22.220Z,71.20
2022-07-31T20:03:08.230Z,70.70
2022-07-31T20:05:53.738Z,71.90
2022-07-31T20:08:39.236Z,69.90
2022-07-31T20:11:24.651Z,70.10
2022-07-31T20:14:10.110Z,70.10
2022-07-31T20:16:55.847Z,70.90
2022-07-31T20:20:12.534Z,69.90
2022-07-31T20:22:48.852Z,71.80
2022-07-31T20:25:34.678Z,71.50
2022-07-31T20:28:20.180Z,71.30
2022-07-31T20:31:06.206Z,71.30
2022-07-31T20:34:02.325Z,71.80
2022-07-31T20:36:47.348Z,70.70
2022-07-31T20:39:33.245Z,70.50
2022-07-31T20:42:19.626Z,71.10
2022-07-31T20:45:05.623Z,72.10
2022-07-31T20:47:53.044Z,72.30
2022-07-31T20:50:38.510Z,71.70
2022-07-31T20:53:23.738Z,71.20
2022-07-31T20:56:09.499Z,72.70
2022-07-31T20:58:55.103Z,72.60
2022-07-31T21:01:41.090Z,72.80
2022-07-31T21:04:26.860Z,73.40
2022-07-31T21:07:12.364Z,73.00
2022-07-31T21:09:57.829Z,72.90
2022-07-31T21:12:43.244Z,71.30
2022-07-31T21:15:43.646Z,72.50
2022-07-31T21:18:34.545Z,73.40
2022-07-31T21:21:21.785Z,73.10
2022-07-31T21:24:07.287Z,75.20
2022-07-31T21:26:57.926Z,74.90
2022-07-31T21:29:43.637Z,74.40
2022-07-31T21:32:29.384Z,74.90
2022-07-31T21:35:15.189Z,75.20
2022-07-31T21:38:21.149Z,74.30
2022-07-31T21:41:07.121Z,75.30
2022-07-31T21:43:59.349Z,74.80
2022-07-31T21:46:47.252Z,74.30
2022-07-31T21:49:37.918Z,74.60
2022-07-31T21:52:23.193Z,75.60
2022-07-31T21:55:09.004Z,75.90
2022-07-31T21:57:58.766Z,75.40
2022-07-31T22:00:45.346Z,75.40
2022-07-31T22:03:31.692Z,73.90
2022-07-31T22:06:35.490Z,73.50
2022-07-31T22:09:24.641Z,73.00
2022-07-31T22:12:10.471Z,73.90
2022-07-31T22:14:56.245Z,74.40
2022-07-31T22:17:41.994Z,75.00
2022-07-31T22:20:27.316Z,75.50
2022-07-31T22:23:12.811Z,75.80
2022-07-31T22:25:59.461Z,75.20
2022-07-31T22:28:46.620Z,75.70
2022-07-31T22:31:32.017Z,76.60
2022-07-31T22:34:17.508Z,75.40
2022-07-31T22:37:25.596Z,77.10
2022-07-31T22:40:11.317Z,77.60
2022-07-31T22:42:58.222Z,77.30
2022-07-31T22:45:43.672Z,78.20
2022-07-31T22:48:30.088Z,77.70
2022-07-31T22:51:15.837Z,78.40
2022-07-31T22:54:01.346Z,78.80
2022-07-31T22:56:46.587Z,78.00
2022-07-31T22:59:32.679Z,78.10
2022-07-31T23:02:18.813Z,77.90
2022-07-31T23:05:05.320Z,77.90
2022-07-31T23:07:50.456Z,79.00
2022-07-31T23:10:35.749Z,78.60
2022-07-31T23:13:21.132Z,78.30
2022-07-31T23:16:06.700Z,77.60
2022-07-31T23:18:51.967Z,78.10
2022-07-31T23:21:37.728Z,78.10
2022-07-31T23:24:22.761Z,77.80
2022-07-31T23:27:08.447Z,77.80
2022-07-31T23:29:53.577Z,77.70
2022-07-31T23:32:38.902Z,76.80
2022-07-31T23:35:24.254Z,77.10
2022-07-31T23:38:09.542Z,77.20
2022-07-31T23:40:56.330Z,77.80
2022-07-31T23:43:54.258Z,77.30
2022-07-31T23:46:40.666Z,77.10
2022-07-31T23:49:26.039Z,77.80
2022-07-31T23:52:11.347Z,77.70
2022-07-31T23:54:56.847Z,78.00
2022-07-31T23:57:42.057Z,78.50
